createdAt,value
2023-04-30T00:01:14.825Z,1.29
2023-04-30T00:03:42.142Z,1.26
2023-04-30T00:06:09.455Z,1.24
2023-04-30T00:08:36.758Z,1.22
2023-04-30T00:11:04.308Z,1.20
2023-04-30T00:13:31.584Z,1.18
2023-04-30T00:15:58.981Z,1.17
2023-04-30T00:18:26.247Z,1.14
2023-04-30T00:20:53.510Z,1.08
2023-04-30T00:23:20.777Z,1.04
2023-04-30T00:25:48.003Z,1.02
2023-04-30T00:28:15.190Z,1.02
2023-04-30T00:30:42.494Z,1.01
2023-04-30T00:33:09.876Z,1.03
2023-04-30T00:35:37.158Z,1.06
2023-04-30T00:38:04.419Z,1.05
2023-04-30T00:40:35.180Z,1.01
2023-04-30T00:43:02.568Z,1.00
2023-04-30T00:45:31.214Z,1.00
2023-04-30T00:47:58.747Z,1.00
2023-04-30T00:50:26.166Z,0.99
2023-04-30T00:52:53.502Z,1.00
2023-04-30T00:55:21.109Z,0.98
2023-04-30T00:57:48.502Z,0.96
2023-04-30T01:00:16.050Z,0.97
2023-04-30T01:02:43.688Z,0.95
2023-04-30T01:05:11.015Z,0.94
2023-04-30T01:07:41.050Z,0.97
2023-04-30T01:10:09.161Z,0.97
2023-04-30T01:13:01.341Z,0.94
2023-04-30T01:15:35.828Z,0.90
2023-04-30T01:18:37.112Z,0.86
2023-04-30T01:21:05.749Z,0.82
2023-04-30T01:23:49.972Z,0.80
2023-04-30T01:26:52.917Z,0.77
2023-04-30T01:29:21.711Z,0.74
2023-04-30T01:31:49.038Z,0.73
2023-04-30T01:34:16.390Z,0.71
2023-04-30T01:37:01.088Z,0.72
2023-04-30T01:39:43.279Z,0.73
2023-04-30T01:42:40.432Z,0.72
2023-04-30T01:45:19.459Z,0.68
2023-04-30T01:48:25.435Z,0.69
2023-04-30T01:51:11.487Z,0.72
2023-04-30T01:53:42.249Z,0.74
2023-04-30T01:56:18.918Z,0.68
2023-04-30T01:58:49.868Z,0.63
2023-04-30T02:01:33.108Z,0.61
2023-04-30T02:04:00.568Z,0.57
2023-04-30T02:06:29.484Z,0.52
2023-04-30T02:09:02.418Z,0.52
2023-04-30T02:11:30.016Z,0.54
2023-04-30T02:13:57.230Z,0.57
2023-04-30T02:16:24.799Z,0.60
2023-04-30T02:18:52.062Z,0.62
2023-04-30T02:21:19.337Z,0.65
2023-04-30T02:23:47.667Z,0.65
2023-04-30T02:26:14.997Z,0.64
2023-04-30T02:28:42.174Z,0.65
2023-04-30T02:31:09.487Z,0.66
2023-04-30T02:33:37.905Z,0.66
2023-04-30T02:36:05.603Z,0.67
2023-04-30T02:38:32.978Z,0.68
2023-04-30T02:41:00.298Z,0.68
2023-04-30T02:43:27.528Z,0.67
2023-04-30T02:45:54.919Z,0.66
2023-04-30T02:48:22.434Z,0.67
2023-04-30T02:50:49.877Z,0.65
2023-04-30T02:53:17.507Z,0.62
2023-04-30T02:55:44.811Z,0.59
2023-04-30T02:58:13.091Z,0.61
2023-04-30T03:00:40.311Z,0.66
2023-04-30T03:03:07.895Z,0.67
2023-04-30T03:05:35.490Z,0.69
2023-04-30T03:08:03.423Z,0.73
2023-04-30T03:10:30.593Z,0.79
2023-04-30T03:12:57.881Z,0.78
2023-04-30T03:15:25.523Z,0.75
2023-04-30T03:17:52.854Z,0.72
2023-04-30T03:20:20.917Z,0.73
2023-04-30T03:22:48.123Z,0.75
2023-04-30T03:25:15.373Z,0.78
2023-04-30T03:27:42.666Z,0.85
2023-04-30T03:30:10.266Z,0.90
2023-04-30T03:32:38.406Z,0.98
2023-04-30T03:35:06.493Z,1.06
2023-04-30T03:37:33.846Z,1.10
2023-04-30T03:40:01.117Z,1.11
2023-04-30T03:42:28.469Z,1.14
2023-04-30T03:44:55.683Z,1.17
2023-04-30T03:47:22.964Z,1.27
2023-04-30T03:49:54.783Z,1.32
2023-04-30T03:52:22.947Z,1.43
2023-04-30T03:54:50.476Z,1.47
2023-04-30T03:57:18.704Z,1.51
2023-04-30T03:59:46.439Z,1.61
2023-04-30T04:02:13.966Z,1.71
2023-04-30T04:04:41.917Z,1.79
2023-04-30T04:07:10.957Z,1.87
2023-04-30T04:09:38.390Z,1.99
2023-04-30T04:12:05.958Z,2.09
2023-04-30T04:14:33.333Z,2.25
2023-04-30T04:17:01.591Z,2.43
2023-04-30T04:19:28.814Z,2.56
2023-04-30T04:21:57.150Z,2.67
2023-04-30T04:24:26.099Z,2.83
2023-04-30T04:26:53.383Z,2.97
2023-04-30T04:29:20.683Z,3.18
2023-04-30T04:31:48.862Z,3.36
2023-04-30T04:34:16.828Z,3.57
2023-04-30T04:36:44.021Z,3.78
2023-04-30T04:39:11.210Z,3.94
2023-04-30T04:41:38.640Z,4.07
2023-04-30T04:44:06.273Z,4.14
2023-04-30T04:46:34.936Z,4.23
2023-04-30T04:49:02.292Z,4.39
2023-04-30T04:51:29.756Z,4.55
2023-04-30T04:53:57.097Z,4.68
2023-04-30T04:56:24.391Z,4.91
2023-04-30T04:58:51.667Z,5.12
2023-04-30T05:01:18.967Z,5.21
2023-04-30T05:03:48.248Z,5.24
2023-04-30T05:06:15.856Z,5.42
2023-04-30T05:08:43.193Z,5.62
2023-04-30T05:11:10.575Z,5.87
2023-04-30T05:13:37.777Z,6.15
2023-04-30T05:16:05.253Z,6.37
2023-04-30T05:18:32.878Z,6.55
2023-04-30T05:21:00.131Z,6.75
2023-04-30T05:23:27.999Z,6.97
2023-04-30T05:25:55.255Z,7.13
2023-04-30T05:28:22.548Z,7.33
2023-04-30T05:30:49.807Z,7.51
2023-04-30T05:33:17.126Z,7.64
2023-04-30T05:35:44.359Z,7.72
2023-04-30T05:38:11.687Z,7.74
2023-04-30T05:40:40.347Z,7.93
2023-04-30T05:43:08.104Z,8.14
2023-04-30T05:45:35.366Z,8.28
2023-04-30T05:48:02.806Z,8.46
2023-04-30T05:50:30.122Z,8.64
2023-04-30T05:52:57.441Z,8.85
2023-04-30T05:55:24.750Z,9.14
2023-04-30T05:57:52.077Z,9.33
2023-04-30T06:00:19.454Z,9.64
2023-04-30T06:02:46.870Z,9.90
2023-04-30T06:05:15.960Z,10.08
2023-04-30T06:07:43.526Z,10.32
2023-04-30T06:10:12.026Z,10.44
2023-04-30T06:12:39.627Z,10.64
2023-04-30T06:15:07.409Z,10.80
2023-04-30T06:17:34.928Z,11.11
2023-04-30T06:20:06.321Z,11.35
2023-04-30T06:22:33.882Z,11.59
2023-04-30T06:25:01.341Z,11.86
2023-04-30T06:27:28.946Z,12.06
2023-04-30T06:29:56.762Z,12.29
2023-04-30T06:32:24.150Z,12.43
2023-04-30T06:34:51.479Z,12.61
2023-04-30T06:37:18.744Z,12.72
2023-04-30T06:39:46.223Z,12.67
2023-04-30T06:42:13.366Z,12.84
2023-04-30T06:44:40.649Z,12.68
2023-04-30T06:47:08.444Z,12.54
2023-04-30T06:49:35.685Z,12.77
2023-04-30T06:52:03.170Z,12.91
2023-04-30T06:54:30.451Z,12.98
2023-04-30T06:56:57.825Z,12.88
2023-04-30T06:59:25.130Z,12.84
2023-04-30T07:01:52.946Z,13.18
2023-04-30T07:04:20.351Z,13.46
2023-04-30T07:06:47.723Z,13.77
2023-04-30T07:09:15.165Z,13.98
2023-04-30T07:11:42.457Z,14.32
2023-04-30T07:14:09.714Z,14.50
2023-04-30T07:16:37.025Z,14.44
2023-04-30T07:19:04.298Z,14.46
2023-04-30T07:21:32.191Z,14.37
2023-04-30T07:23:59.509Z,14.46
2023-04-30T07:26:26.872Z,14.44
2023-04-30T07:28:54.998Z,14.40
2023-04-30T07:31:22.374Z,14.31
2023-04-30T07:33:50.136Z,14.49
2023-04-30T07:36:17.603Z,14.58
2023-04-30T07:38:44.887Z,14.40
2023-04-30T07:41:13.421Z,14.47
2023-04-30T07:43:40.768Z,14.65
2023-04-30T07:46:08.045Z,14.71
2023-04-30T07:48:35.408Z,14.73
2023-04-30T07:51:04.321Z,14.90
2023-04-30T07:53:31.704Z,15.12
2023-04-30T07:55:59.035Z,15.26
2023-04-30T07:58:26.344Z,14.86
2023-04-30T08:00:53.731Z,14.97
2023-04-30T08:03:21.164Z,14.93
2023-04-30T08:05:48.496Z,15.32
2023-04-30T08:08:15.782Z,15.27
2023-04-30T08:10:43.133Z,15.42
2023-04-30T08:13:10.441Z,15.44
2023-04-30T08:15:39.498Z,15.49
2023-04-30T08:18:06.839Z,15.30
2023-04-30T08:20:34.557Z,15.47
2023-04-30T08:23:02.990Z,15.65
2023-04-30T08:25:31.299Z,15.26
2023-04-30T08:27:59.223Z,15.40
2023-04-30T08:30:26.438Z,15.03
2023-04-30T08:32:56.047Z,15.21
2023-04-30T08:35:25.207Z,15.42
2023-04-30T08:37:52.943Z,15.45
2023-04-30T08:40:21.018Z,15.70
2023-04-30T08:43:09.138Z,15.68
2023-04-30T08:45:36.902Z,15.50
2023-04-30T08:48:10.604Z,15.57
2023-04-30T08:50:38.431Z,15.97
2023-04-30T08:53:07.475Z,16.20
2023-04-30T08:55:35.076Z,16.17
2023-04-30T08:58:02.450Z,16.02
2023-04-30T09:00:32.465Z,15.75
2023-04-30T09:03:01.077Z,16.12
2023-04-30T09:05:28.604Z,16.07
2023-04-30T09:08:02.919Z,16.22
2023-04-30T09:10:35.501Z,16.43
2023-04-30T09:13:09.754Z,16.34
2023-04-30T09:15:41.019Z,16.61
2023-04-30T09:18:18.054Z,16.72
2023-04-30T09:21:02.609Z,16.43
2023-04-30T09:23:30.280Z,16.75
2023-04-30T09:25:57.681Z,16.33
2023-04-30T09:28:26.800Z,16.36
2023-04-30T09:30:56.994Z,16.34
2023-04-30T09:33:24.512Z,16.85
2023-04-30T09:35:52.223Z,16.98
2023-04-30T09:38:32.908Z,17.05
2023-04-30T09:41:01.583Z,16.98
2023-04-30T09:43:30.418Z,17.15
2023-04-30T09:45:59.287Z,16.87
2023-04-30T09:48:31.027Z,17.15
2023-04-30T09:50:58.474Z,17.20
2023-04-30T09:53:26.906Z,17.29
2023-04-30T09:55:58.333Z,17.40
2023-04-30T09:58:28.030Z,17.41
2023-04-30T10:00:56.962Z,17.46
2023-04-30T10:03:24.503Z,17.31
2023-04-30T10:05:52.541Z,17.36
2023-04-30T10:08:31.681Z,17.54
2023-04-30T10:11:03.518Z,17.85
2023-04-30T10:14:03.146Z,18.06
2023-04-30T10:16:58.441Z,17.97
2023-04-30T10:19:31.618Z,17.75
2023-04-30T10:22:01.143Z,18.19
2023-04-30T10:24:28.674Z,18.26
2023-04-30T10:26:56.836Z,18.32
2023-04-30T10:29:24.278Z,18.22
2023-04-30T10:31:53.355Z,18.50
2023-04-30T10:34:59.618Z,18.63
2023-04-30T10:37:39.691Z,18.17
2023-04-30T10:40:09.354Z,18.29
2023-04-30T10:42:36.831Z,18.51
2023-04-30T10:45:04.830Z,18.60
2023-04-30T10:47:32.107Z,18.40
2023-04-30T10:50:04.802Z,18.15
2023-04-30T10:52:32.030Z,18.66
2023-04-30T10:55:04.020Z,18.90
2023-04-30T10:57:31.348Z,19.32
2023-04-30T11:00:07.866Z,19.60
2023-04-30T11:02:40.875Z,19.38
2023-04-30T11:05:14.232Z,19.42
2023-04-30T11:07:50.502Z,19.57
2023-04-30T11:10:23.500Z,19.14
2023-04-30T11:12:53.054Z,19.11
2023-04-30T11:15:25.709Z,18.91
2023-04-30T11:17:58.839Z,19.32
2023-04-30T11:20:27.284Z,19.78
2023-04-30T11:23:19.223Z,20.38
2023-04-30T11:25:57.399Z,20.34
2023-04-30T11:28:26.266Z,20.57
2023-04-30T11:30:56.580Z,20.07
2023-04-30T11:33:29.598Z,20.41
2023-04-30T11:36:00.217Z,20.45
2023-04-30T11:38:35.632Z,19.93
2023-04-30T11:41:04.437Z,19.94
2023-04-30T11:43:33.991Z,21.23
2023-04-30T11:46:13.550Z,21.20
2023-04-30T11:48:44.106Z,21.58
2023-04-30T11:51:18.793Z,21.32
2023-04-30T11:53:48.337Z,21.71
2023-04-30T11:56:25.741Z,21.55
2023-04-30T11:58:55.270Z,21.82
2023-04-30T12:01:27.447Z,21.76
2023-04-30T12:03:56.929Z,21.97
2023-04-30T12:06:27.158Z,21.76
2023-04-30T12:08:56.050Z,22.66
2023-04-30T12:11:26.148Z,22.43
2023-04-30T12:14:02.953Z,22.07
2023-04-30T12:16:50.767Z,22.34
2023-04-30T12:19:20.757Z,22.48
2023-04-30T12:21:49.496Z,22.36
2023-04-30T12:24:19.039Z,22.36
2023-04-30T12:26:47.541Z,22.23
2023-04-30T12:29:17.995Z,22.41
2023-04-30T12:31:49.642Z,22.11
2023-04-30T12:34:17.963Z,22.34
2023-04-30T12:36:45.327Z,21.91
2023-04-30T12:39:17.831Z,22.64
2023-04-30T12:41:49.637Z,22.85
2023-04-30T12:44:27.742Z,23.04
2023-04-30T12:46:57.373Z,22.74
2023-04-30T12:49:30.384Z,22.68
2023-04-30T12:52:00.777Z,22.23
2023-04-30T12:54:30.068Z,22.18
2023-04-30T12:56:59.826Z,22.31
2023-04-30T12:59:32.097Z,21.89
2023-04-30T13:02:13.413Z,21.56
2023-04-30T13:04:42.517Z,20.74
2023-04-30T13:07:11.080Z,20.86
2023-04-30T13:09:38.421Z,21.16
2023-04-30T13:12:06.230Z,21.50
2023-04-30T13:14:33.958Z,21.15
2023-04-30T13:17:04.452Z,21.62
2023-04-30T13:19:32.313Z,21.81
2023-04-30T13:22:01.234Z,21.95
2023-04-30T13:24:30.557Z,22.26
2023-04-30T13:26:58.733Z,22.27
2023-04-30T13:29:26.258Z,22.31
2023-04-30T13:31:53.901Z,22.06
2023-04-30T13:34:21.385Z,22.12
2023-04-30T13:36:48.796Z,21.70
2023-04-30T13:39:16.050Z,20.87
2023-04-30T13:41:43.329Z,20.72
2023-04-30T13:44:10.910Z,20.50
2023-04-30T13:46:38.303Z,20.50
2023-04-30T13:49:05.713Z,20.50
2023-04-30T13:51:33.025Z,19.94
2023-04-30T13:54:00.322Z,20.10
2023-04-30T13:56:27.674Z,20.79
2023-04-30T13:58:54.888Z,21.00
2023-04-30T14:01:22.304Z,21.34
2023-04-30T14:03:49.895Z,21.60
2023-04-30T14:06:17.471Z,21.90
2023-04-30T14:08:44.947Z,22.40
2023-04-30T14:11:12.272Z,22.51
2023-04-30T14:13:39.688Z,22.12
2023-04-30T14:16:07.477Z,22.46
2023-04-30T14:18:34.968Z,22.40
2023-04-30T14:21:02.474Z,22.62
2023-04-30T14:23:29.886Z,22.29
2023-04-30T14:25:57.289Z,22.44
2023-04-30T14:28:24.883Z,22.19
2023-04-30T14:30:52.190Z,22.42
2023-04-30T14:33:19.561Z,22.55
2023-04-30T14:35:46.965Z,22.45
2023-04-30T14:38:14.952Z,22.37
2023-04-30T14:40:44.165Z,22.36
2023-04-30T14:43:11.661Z,22.51
2023-04-30T14:45:40.011Z,22.64
2023-04-30T14:48:07.486Z,22.74
2023-04-30T14:50:35.019Z,22.48
2023-04-30T14:53:04.238Z,22.18
2023-04-30T14:55:32.578Z,21.84
2023-04-30T14:58:00.442Z,21.50
2023-04-30T15:00:28.605Z,21.15
2023-04-30T15:02:56.054Z,21.10
2023-04-30T15:05:23.461Z,21.10
2023-04-30T15:07:50.739Z,21.09
2023-04-30T15:10:18.552Z,21.30
2023-04-30T15:12:45.952Z,21.57
2023-04-30T15:15:13.227Z,21.82
2023-04-30T15:17:40.879Z,22.09
2023-04-30T15:20:08.809Z,22.70
2023-04-30T15:22:36.196Z,23.34
2023-04-30T15:25:04.853Z,23.83
2023-04-30T15:27:33.783Z,24.12
2023-04-30T15:30:01.331Z,24.31
2023-04-30T15:32:29.265Z,24.53
2023-04-30T15:34:56.547Z,24.37
2023-04-30T15:37:23.896Z,24.81
2023-04-30T15:39:51.241Z,25.16
2023-04-30T15:42:18.486Z,24.26
2023-04-30T15:44:45.955Z,24.72
2023-04-30T15:47:13.265Z,24.43
2023-04-30T15:49:40.765Z,24.56
2023-04-30T15:52:08.084Z,24.38
2023-04-30T15:54:35.428Z,23.78
2023-04-30T15:57:03.356Z,24.11
2023-04-30T15:59:30.647Z,24.16
2023-04-30T16:01:58.047Z,24.58
2023-04-30T16:04:25.722Z,24.48
2023-04-30T16:06:53.326Z,24.54
2023-04-30T16:09:20.910Z,24.31
2023-04-30T16:11:48.763Z,23.85
2023-04-30T16:14:16.571Z,23.78
2023-04-30T16:16:43.952Z,23.16
2023-04-30T16:19:11.968Z,22.68
2023-04-30T16:21:40.162Z,22.27
2023-04-30T16:24:08.785Z,22.14
2023-04-30T16:26:36.590Z,21.59
2023-04-30T16:29:04.140Z,21.02
2023-04-30T16:31:31.961Z,20.51
2023-04-30T16:33:59.262Z,20.13
2023-04-30T16:36:27.537Z,19.82
2023-04-30T16:38:54.946Z,19.34
2023-04-30T16:41:22.384Z,19.06
2023-04-30T16:43:49.747Z,18.83
2023-04-30T16:46:17.326Z,18.66
2023-04-30T16:48:44.804Z,18.41
2023-04-30T16:51:13.252Z,18.11
2023-04-30T16:53:40.495Z,17.99
2023-04-30T16:56:07.871Z,17.78
2023-04-30T16:58:35.126Z,17.57
2023-04-30T17:01:02.404Z,17.44
2023-04-30T17:03:30.365Z,17.32
2023-04-30T17:05:57.726Z,17.12
2023-04-30T17:08:25.522Z,16.95
2023-04-30T17:10:52.820Z,16.76
2023-04-30T17:13:20.175Z,16.59
2023-04-30T17:15:48.155Z,16.35
2023-04-30T17:18:15.632Z,16.12
2023-04-30T17:20:45.073Z,15.93
2023-04-30T17:23:12.332Z,15.73
2023-04-30T17:25:39.630Z,15.52
2023-04-30T17:28:06.866Z,15.31
2023-04-30T17:30:34.776Z,15.18
2023-04-30T17:33:03.755Z,15.08
2023-04-30T17:35:31.219Z,14.96
2023-04-30T17:37:59.021Z,14.81
2023-04-30T17:40:26.609Z,14.68
2023-04-30T17:42:53.916Z,14.55
2023-04-30T17:45:21.362Z,14.49
2023-04-30T17:47:48.837Z,14.40
2023-04-30T17:50:16.126Z,14.29
2023-04-30T17:52:43.542Z,14.19
2023-04-30T17:55:11.271Z,14.07
2023-04-30T17:57:38.647Z,13.90
2023-04-30T18:00:07.155Z,13.78
2023-04-30T18:02:43.699Z,13.67
2023-04-30T18:05:14.300Z,13.50
2023-04-30T18:07:41.919Z,13.30
2023-04-30T18:10:09.449Z,13.12
2023-04-30T18:12:37.825Z,12.95
2023-04-30T18:15:08.789Z,12.83
2023-04-30T18:17:37.505Z,12.57
2023-04-30T18:20:07.453Z,12.38
2023-04-30T18:22:40.673Z,12.24
2023-04-30T18:25:12.464Z,12.12
2023-04-30T18:27:40.452Z,12.08
2023-04-30T18:30:09.674Z,12.04
2023-04-30T18:32:37.243Z,12.01
2023-04-30T18:35:05.228Z,11.95
2023-04-30T18:37:32.644Z,11.85
2023-04-30T18:40:00.011Z,11.71
2023-04-30T18:42:28.578Z,11.57
2023-04-30T18:44:56.701Z,11.42
2023-04-30T18:47:24.341Z,11.30
2023-04-30T18:49:51.680Z,11.20
2023-04-30T18:52:19.003Z,11.12
2023-04-30T18:54:46.329Z,11.03
2023-04-30T18:57:15.800Z,10.87
2023-04-30T18:59:43.014Z,10.71
2023-04-30T19:02:10.639Z,10.61
2023-04-30T19:04:38.053Z,10.62
2023-04-30T19:07:05.300Z,10.63
2023-04-30T19:09:38.164Z,10.62
2023-04-30T19:12:06.010Z,10.54
2023-04-30T19:14:33.387Z,10.40
2023-04-30T19:17:00.829Z,10.25
2023-04-30T19:19:28.198Z,10.16
2023-04-30T19:21:55.589Z,10.05
2023-04-30T19:24:24.634Z,9.94
2023-04-30T19:26:52.211Z,9.86
2023-04-30T19:29:19.548Z,9.79
2023-04-30T19:31:46.952Z,9.70
2023-04-30T19:34:14.476Z,9.55
2023-04-30T19:36:43.396Z,9.41
2023-04-30T19:39:11.324Z,9.27
2023-04-30T19:41:38.878Z,9.15
2023-04-30T19:44:07.406Z,9.04
2023-04-30T19:46:34.758Z,9.02
2023-04-30T19:49:02.037Z,9.08
2023-04-30T19:51:29.375Z,9.13
2023-04-30T19:53:58.393Z,9.10
2023-04-30T19:56:25.872Z,8.98
2023-04-30T19:58:53.118Z,8.87
2023-04-30T20:01:20.511Z,8.75
2023-04-30T20:03:47.984Z,8.64
2023-04-30T20:06:15.423Z,8.56
2023-04-30T20:08:42.754Z,8.43
2023-04-30T20:11:10.022Z,8.28
2023-04-30T20:13:37.258Z,8.16
2023-04-30T20:16:05.014Z,8.02
2023-04-30T20:18:32.325Z,7.88
2023-04-30T20:20:59.843Z,7.79
2023-04-30T20:23:27.076Z,7.73
2023-04-30T20:25:54.573Z,7.61
2023-04-30T20:28:21.949Z,7.48
2023-04-30T20:30:49.209Z,7.37
2023-04-30T20:33:18.276Z,7.26
2023-04-30T20:35:46.667Z,7.15
2023-04-30T20:38:18.010Z,7.04
2023-04-30T20:40:46.993Z,6.97
2023-04-30T20:43:14.750Z,6.89
2023-04-30T20:45:44.680Z,6.83
2023-04-30T20:48:12.023Z,6.75
2023-04-30T20:50:39.604Z,6.65
2023-04-30T20:53:10.281Z,6.58
2023-04-30T20:55:38.387Z,6.55
2023-04-30T20:58:07.316Z,6.50
2023-04-30T21:00:34.652Z,6.42
2023-04-30T21:03:02.111Z,6.37
2023-04-30T21:05:29.621Z,6.30
2023-04-30T21:08:00.478Z,6.23
2023-04-30T21:10:34.704Z,6.16
2023-04-30T21:13:04.383Z,6.08
2023-04-30T21:15:34.685Z,6.04
2023-04-30T21:18:02.283Z,5.98
2023-04-30T21:20:30.773Z,5.91
2023-04-30T21:22:58.004Z,5.85
2023-04-30T21:25:25.362Z,5.78
2023-04-30T21:27:52.788Z,5.72
2023-04-30T21:30:22.335Z,5.68
2023-04-30T21:32:57.201Z,5.62
2023-04-30T21:35:25.169Z,5.56
2023-04-30T21:37:52.658Z,5.53
2023-04-30T21:40:20.168Z,5.53
2023-04-30T21:42:47.590Z,5.49
2023-04-30T21:45:15.508Z,5.47
2023-04-30T21:47:44.032Z,5.43
2023-04-30T21:50:11.802Z,5.41
2023-04-30T21:52:39.051Z,5.37
2023-04-30T21:55:07.316Z,5.35
2023-04-30T21:57:35.017Z,5.35
2023-04-30T22:00:04.039Z,5.30
2023-04-30T22:02:32.554Z,5.24
2023-04-30T22:05:00.451Z,5.22
2023-04-30T22:07:27.774Z,5.21
2023-04-30T22:09:55.916Z,5.20
2023-04-30T22:12:24.634Z,5.16
2023-04-30T22:14:55.154Z,5.12
2023-04-30T22:17:22.908Z,5.03
2023-04-30T22:19:50.649Z,4.96
2023-04-30T22:22:17.913Z,4.91
2023-04-30T22:24:45.515Z,4.92
2023-04-30T22:27:13.136Z,4.89
2023-04-30T22:29:41.490Z,4.84
2023-04-30T22:32:09.383Z,4.85
2023-04-30T22:34:41.179Z,4.87
2023-04-30T22:37:11.621Z,4.88
2023-04-30T22:39:38.929Z,4.85
2023-04-30T22:42:07.934Z,4.82
2023-04-30T22:44:35.952Z,4.86
2023-04-30T22:47:03.491Z,5.02
2023-04-30T22:49:32.258Z,5.28
2023-04-30T22:52:00.800Z,5.49
2023-04-30T22:54:28.455Z,5.60
2023-04-30T22:56:56.141Z,5.72
2023-04-30T22:59:23.465Z,5.90
2023-04-30T23:01:50.996Z,6.29
2023-04-30T23:04:18.433Z,6.41
2023-04-30T23:06:45.994Z,6.60
2023-04-30T23:09:15.050Z,6.77
2023-04-30T23:11:42.302Z,6.94
2023-04-30T23:14:09.560Z,7.19
2023-04-30T23:16:39.630Z,7.43
2023-04-30T23:19:06.982Z,7.67
2023-04-30T23:21:34.445Z,7.97
2023-04-30T23:24:03.339Z,8.20
2023-04-30T23:26:30.988Z,8.31
2023-04-30T23:28:58.299Z,8.43
2023-04-30T23:31:25.615Z,8.64
2023-04-30T23:33:52.920Z,8.82
2023-04-30T23:36:20.165Z,8.92
2023-04-30T23:38:47.582Z,8.98
2023-04-30T23:41:15.133Z,9.08
2023-04-30T23:43:42.596Z,9.10
2023-04-30T23:46:10.196Z,9.11
2023-04-30T23:48:38.056Z,9.10
2023-04-30T23:51:07.811Z,9.11
2023-04-30T23:53:35.202Z,9.10
2023-04-30T23:56:02.932Z,9.10
2023-04-30T23:58:30.347Z,9.07
